Time;durP1;ratioP1;P1;durP2;ratioP2;P2;SDS_P1;SDS_P2;PMS_P1;PMS_P2;Temp;Humidity;BMP_temperature;BMP_pressure;BME280_temperature;BME280_humidity;BME280_pressure;Samples;Min_cycle;Max_cycle;Signal;HPM_P1;HPM_P2
2022/04/08 00:01:07;;;;;;;13.13;2.33;;;;;;;5.00;100.00;99160.19;4977555;28;20043;-79
2022/04/08 00:03:35;;;;;;;5.97;2.05;;;;;;;4.98;100.00;99168.00;4996145;28;20153;-79
2022/04/08 00:06:08;;;;;;;6.65;2.00;;;;;;;4.97;100.00;99168.00;4980959;28;20050;-79
2022/04/08 00:08:37;;;;;;;12.15;2.45;;;;;;;4.94;100.00;99179.31;4980730;28;20266;-80
2022/04/08 00:11:07;;;;;;;7.28;1.83;;;;;;;4.94;100.00;99186.28;4971058;28;20053;-80
2022/04/08 00:13:36;;;;;;;6.63;1.77;;;;;;;4.92;100.00;99185.44;4987610;28;20235;-80
2022/04/08 00:16:05;;;;;;;9.15;1.70;;;;;;;4.91;100.00;99187.16;5006331;28;20052;-80
2022/04/08 00:18:39;;;;;;;6.60;1.70;;;;;;;4.92;100.00;99190.66;4975456;28;20060;-80
2022/04/08 00:21:07;;;;;;;;;;;;;;;4.90;100.00;99206.31;5004097;28;20065;-80
2022/04/08 00:23:36;;;;;;;7.55;2.00;;;;;;;4.84;100.00;99212.41;4963487;28;20432;-81
2022/04/08 00:26:04;;;;;;;5.55;1.17;;;;;;;4.69;100.00;99249.78;4967145;28;20050;-81
2022/04/08 00:28:33;;;;;;;4.43;1.30;;;;;;;4.46;100.00;99241.94;4995454;28;20076;-81
2022/04/08 00:31:02;;;;;;;2.72;1.00;;;;;;;4.26;100.00;99256.66;4995568;28;20366;-80
2022/04/08 00:33:32;;;;;;;2.92;0.70;;;;;;;4.10;100.00;99258.31;4999225;28;20256;-79
2022/04/08 00:36:01;;;;;;;3.13;1.17;;;;;;;4.01;100.00;99253.09;5006397;28;20042;-79
2022/04/08 00:38:29;;;;;;;5.75;0.90;;;;;;;3.95;100.00;99266.97;4965156;28;20652;-79
2022/04/08 00:40:58;;;;;;;5.53;1.02;;;;;;;3.90;100.00;99282.56;4991369;28;20053;-80
2022/04/08 00:43:36;;;;;;;7.00;1.40;;;;;;;3.87;100.00;99290.34;4960121;28;20212;-79
2022/04/08 00:46:10;;;;;;;11.73;1.88;;;;;;;3.84;100.00;99297.31;4996130;28;20149;-81
2022/04/08 00:48:39;;;;;;;10.02;1.80;;;;;;;3.75;100.00;99303.31;5004899;28;20595;-79
2022/04/08 00:51:08;;;;;;;10.18;2.20;;;;;;;3.67;100.00;99299.81;5005696;28;20053;-79
2022/04/08 00:53:38;;;;;;;7.13;1.83;;;;;;;3.64;100.00;99312.81;4991669;28;20240;-79
2022/04/08 00:56:07;;;;;;;7.13;1.70;;;;;;;3.61;100.00;99316.28;4979073;28;20034;-79
2022/04/08 00:58:37;;;;;;;5.75;1.85;;;;;;;3.61;100.00;99328.41;4965088;28;20050;-80
2022/04/08 01:01:05;;;;;;;11.75;2.58;;;;;;;3.62;100.00;99325.81;4960671;28;20053;-79
2022/04/08 01:03:34;;;;;;;13.13;2.08;;;;;;;3.59;100.00;99337.94;4980962;23;20074;-82
2022/04/08 01:06:03;;;;;;;12.13;2.00;;;;;;;3.53;100.00;99354.41;4970501;28;20034;-82
2022/04/08 01:08:34;;;;;;;15.27;3.05;;;;;;;3.49;100.00;99347.44;4971077;28;20267;-81
2022/04/08 01:11:03;;;;;;;9.43;2.40;;;;;;;3.46;100.00;99353.50;4953736;28;20054;-81
2022/04/08 01:13:31;;;;;;;12.25;2.90;;;;;;;3.46;100.00;99356.09;4954980;28;20165;-81
2022/04/08 01:16:00;;;;;;;13.55;2.40;;;;;;;3.46;100.00;99348.28;4963665;28;20039;-81
2022/04/08 01:18:28;;;;;;;10.77;2.38;;;;;;;3.45;100.00;99358.69;4968162;28;20264;-80
2022/04/08 01:20:57;;;;;;;9.13;2.63;;;;;;;3.47;100.00;99363.03;4965506;28;20034;-81
2022/04/08 01:23:28;;;;;;;10.38;2.40;;;;;;;3.46;100.00;99344.78;4956419;28;20421;-81
2022/04/08 01:25:56;;;;;;;12.15;2.33;;;;;;;3.47;100.00;99360.44;4965320;28;20038;-81
2022/04/08 01:28:26;;;;;;;14.02;2.20;;;;;;;3.49;100.00;99357.84;4944555;28;20284;-81
2022/04/08 01:30:55;;;;;;;12.90;2.30;;;;;;;3.49;100.00;99361.31;4925748;28;20051;-81
2022/04/08 01:33:23;;;;;;;10.20;3.10;;;;;;;3.51;100.00;99369.16;4950843;28;20066;-81
2022/04/08 01:35:52;;;;;;;12.88;1.98;;;;;;;3.51;100.00;99370.00;4974015;28;20054;-81
2022/04/08 01:38:20;;;;;;;11.60;2.50;;;;;;;3.53;100.00;99370.03;4968432;28;20038;-81
2022/04/08 01:40:50;;;;;;;18.42;2.55;;;;;;;3.55;100.00;99370.03;4972061;28;20220;-81
2022/04/08 01:43:18;;;;;;;13.82;2.60;;;;;;;3.56;100.00;99362.25;4946536;28;20066;-82
2022/04/08 01:45:47;;;;;;;13.77;2.72;;;;;;;3.57;100.00;99360.50;4959893;28;20042;-81
2022/04/08 01:48:19;;;;;;;15.00;3.60;;;;;;;3.59;100.00;99367.50;4948849;28;20054;-82
2022/04/08 01:50:49;;;;;;;12.45;2.85;;;;;;;3.59;100.00;99374.41;4935314;29;20404;-81
2022/04/08 01:53:17;;;;;;;21.37;3.57;;;;;;;3.57;100.00;99363.97;4967108;28;20523;-82
2022/04/08 01:55:46;;;;;;;13.90;2.20;;;;;;;3.58;100.00;99385.72;4953233;28;20038;-81
2022/04/08 01:58:15;;;;;;;13.85;2.78;;;;;;;3.57;100.00;99383.94;4905354;28;20043;-81
2022/04/08 02:00:43;;;;;;;9.95;3.53;;;;;;;3.58;100.00;99380.50;4977611;28;20500;-81
2022/04/08 02:03:12;;;;;;;11.82;2.47;;;;;;;3.59;100.00;99377.03;4934150;29;20412;-81
2022/04/08 02:05:40;;;;;;;11.57;3.05;;;;;;;3.59;100.00;99377.91;4952965;29;20040;-81
2022/04/08 02:08:12;;;;;;;19.55;3.33;;;;;;;3.58;100.00;99381.38;4934763;29;20073;-81
2022/04/08 02:10:41;;;;;;;16.55;2.78;;;;;;;3.58;100.00;99383.97;4970103;28;20054;-81
2022/04/08 02:13:09;;;;;;;17.35;3.35;;;;;;;3.60;100.00;99397.00;4929448;28;20047;-82
2022/04/08 02:15:37;;;;;;;16.98;2.35;;;;;;;3.59;100.00;99397.84;4952048;29;20158;-81
2022/04/08 02:18:07;;;;;;;15.25;2.90;;;;;;;3.60;100.00;99404.81;4929886;29;20027;-81
2022/04/08 02:20:35;;;;;;;23.00;3.67;;;;;;;3.59;100.00;99413.47;4951269;28;20039;-81
2022/04/08 02:23:05;;;;;;;20.15;3.08;;;;;;;3.60;100.00;99397.00;4950366;28;20421;-81
2022/04/08 02:25:33;;;;;;;11.50;3.72;;;;;;;3.60;100.00;99405.69;4949618;29;20047;-81
2022/04/08 02:28:02;;;;;;;24.70;3.20;;;;;;;3.62;100.00;99406.56;4964745;28;20048;-82
2022/04/08 02:30:31;;;;;;;18.45;2.67;;;;;;;3.62;100.00;99413.53;4953214;28;20157;-81
2022/04/08 02:33:01;;;;;;;10.75;1.95;;;;;;;3.61;100.00;99411.75;4963142;28;20052;-81
2022/04/08 02:35:31;;;;;;;16.25;2.33;;;;;;;3.59;100.00;99414.38;4966188;28;20052;-81
2022/04/08 02:37:59;;;;;;;16.15;2.83;;;;;;;3.60;100.00;99421.31;4965856;28;20062;-81
2022/04/08 02:40:28;;;;;;;15.90;2.58;;;;;;;3.59;100.00;99434.31;4950638;29;20046;-80
2022/04/08 02:42:56;;;;;;;12.00;2.38;;;;;;;3.55;100.00;99430.81;4936373;29;20399;-81
2022/04/08 02:45:24;;;;;;;15.40;2.72;;;;;;;3.51;100.00;99437.72;4912581;29;20047;-81
2022/04/08 02:47:53;;;;;;;13.82;2.22;;;;;;;3.46;100.00;99434.22;4945403;28;20519;-80
2022/04/08 02:50:22;;;;;;;9.65;2.53;;;;;;;3.43;100.00;99442.00;4951739;29;20433;-81
2022/04/08 02:52:50;;;;;;;12.20;2.22;;;;;;;3.41;100.00;99443.72;4955146;29;20019;-81
2022/04/08 02:55:19;;;;;;;12.23;2.63;;;;;;;3.38;100.00;99454.09;4950548;28;20051;-81
2022/04/08 02:57:48;;;;;;;11.50;2.00;;;;;;;3.37;100.00;99460.19;4935776;29;20061;-80
2022/04/08 03:00:19;;;;;;;8.63;2.10;;;;;;;3.38;100.00;99455.84;4929194;28;20059;-80
2022/04/08 03:02:49;;;;;;;19.75;2.70;;;;;;;3.38;100.00;99461.03;4952510;29;20530;-80
2022/04/08 03:05:17;;;;;;;16.95;3.40;;;;;;;3.37;100.00;99454.09;4931478;28;20055;-80
2022/04/08 03:07:46;;;;;;;14.68;2.45;;;;;;;3.40;100.00;99468.00;4969736;28;20043;-80
2022/04/08 03:10:15;;;;;;;11.73;2.40;;;;;;;3.40;100.00;99473.22;4935480;29;20047;-80
2022/04/08 03:12:43;;;;;;;15.73;3.13;;;;;;;3.41;100.00;99467.16;4938706;29;20070;-80
2022/04/08 03:15:11;;;;;;;11.30;2.45;;;;;;;3.42;100.00;99474.13;4939957;28;20063;-80
2022/04/08 03:17:40;;;;;;;16.55;2.60;;;;;;;3.41;100.00;99482.78;4934891;29;20039;-80
2022/04/08 03:20:09;;;;;;;15.10;2.47;;;;;;;3.43;100.00;99503.63;4920533;29;20047;-81
2022/04/08 03:22:37;;;;;;;13.05;2.97;;;;;;;3.44;100.00;99510.56;4952382;28;20051;-80
2022/04/08 03:25:06;;;;;;;6.50;1.50;;;;;;;3.41;100.00;99531.41;4949500;28;20052;-81
2022/04/08 03:27:34;;;;;;;4.47;1.63;;;;;;;3.29;100.00;99520.00;4953230;28;20269;-79
2022/04/08 03:30:03;;;;;;;6.10;1.50;;;;;;;3.03;100.00;99537.91;4923627;28;20044;-81
2022/04/08 03:32:31;;;;;;;7.90;1.20;;;;;;;2.85;100.00;99558.47;4919718;29;20696;-81
2022/04/08 03:35:00;;;;;;;6.18;1.40;;;;;;;2.73;100.00;99517.56;4969086;28;20039;-80
2022/04/08 03:37:29;;;;;;;4.28;1.33;;;;;;;2.67;100.00;99494.94;4927279;28;20060;-80
2022/04/08 03:39:58;;;;;;;1.23;0.90;;;;;;;2.65;100.00;99494.03;4905985;29;20046;-80
2022/04/08 03:42:26;;;;;;;4.30;1.52;;;;;;;2.68;100.00;99499.25;4950666;28;20379;-80
2022/04/08 03:44:55;;;;;;;5.90;1.35;;;;;;;2.74;100.00;99498.47;4944221;28;20040;-80
2022/04/08 03:47:23;;;;;;;3.80;1.38;;;;;;;2.78;100.00;99488.97;4931534;29;20083;-80
2022/04/08 03:49:51;;;;;;;2.80;1.48;;;;;;;2.79;100.00;99496.81;4968882;28;20054;-80
2022/04/08 03:52:20;;;;;;;4.60;1.30;;;;;;;2.80;100.00;99500.28;4924889;29;20081;-80
2022/04/08 03:54:49;;;;;;;4.20;1.33;;;;;;;2.78;100.00;99488.97;4953265;28;20062;-80
2022/04/08 03:57:17;;;;;;;3.72;2.13;;;;;;;2.77;100.00;99498.53;4949136;29;20039;-80
2022/04/08 03:59:47;;;;;;;3.58;1.38;;;;;;;2.78;100.00;99518.50;4954202;28;20039;-80
2022/04/08 04:02:15;;;;;;;7.75;2.15;;;;;;;2.77;100.00;99511.53;4943504;28;20050;-81
2022/04/08 04:04:44;;;;;;;8.45;2.08;;;;;;;2.79;100.00;99522.84;4953306;28;20085;-80
2022/04/08 04:07:12;;;;;;;18.38;2.03;;;;;;;2.84;100.00;99547.19;4947728;28;20067;-80
2022/04/08 04:09:41;;;;;;;11.45;3.17;;;;;;;2.85;100.00;99545.44;4930801;28;20047;-80
2022/04/08 04:12:10;;;;;;;15.90;2.45;;;;;;;2.85;100.00;99542.84;4947386;28;20165;-80
2022/04/08 04:14:38;;;;;;;14.55;2.03;;;;;;;2.85;100.00;99555.88;4967422;28;20276;-80
2022/04/08 04:17:07;;;;;;;10.25;2.55;;;;;;;2.86;100.00;99549.81;4914728;29;20058;-81
2022/04/08 04:19:35;;;;;;;11.98;2.10;;;;;;;2.86;100.00;99555.88;4934973;29;20547;-80
2022/04/08 04:22:04;;;;;;;7.90;2.05;;;;;;;2.85;100.00;99548.91;4951600;28;20055;-81
2022/04/08 04:24:34;;;;;;;5.60;1.90;;;;;;;2.83;100.00;99545.44;4930412;29;20179;-80
2022/04/08 04:27:03;;;;;;;8.25;2.00;;;;;;;2.83;100.00;99555.84;4936095;29;20047;-81
2022/04/08 04:29:32;;;;;;;6.78;1.85;;;;;;;2.86;100.00;99550.69;4950544;29;20325;-81
2022/04/08 04:32:03;;;;;;;7.85;1.95;;;;;;;2.89;100.00;99548.13;4953198;28;20047;-80
2022/04/08 04:34:36;;;;;;;8.00;3.35;;;;;;;2.93;100.00;99556.88;4945623;28;20256;-80
2022/04/08 04:37:05;;;;;;;13.57;2.90;;;;;;;2.97;100.00;99549.94;4952807;28;20047;-81
2022/04/08 04:39:33;;;;;;;7.53;2.20;;;;;;;3.01;100.00;99557.81;4929473;28;20622;-80
2022/04/08 04:42:02;;;;;;;7.50;2.95;;;;;;;3.04;100.00;99560.44;4931167;29;20051;-81
2022/04/08 04:44:31;;;;;;;7.32;1.95;;;;;;;3.07;100.00;99550.09;4949669;28;20233;-80
2022/04/08 04:46:59;;;;;;;5.80;1.60;;;;;;;3.11;100.00;99553.59;4936404;29;20119;-80
2022/04/08 04:49:28;;;;;;;6.47;2.22;;;;;;;3.16;100.00;99549.34;4928212;28;20031;-80
2022/04/08 04:51:56;;;;;;;7.50;2.20;;;;;;;3.16;100.00;99553.66;4943538;28;20054;-80
2022/04/08 04:54:24;;;;;;;4.60;1.77;;;;;;;3.16;100.00;99559.75;4955931;28;20051;-80
2022/04/08 04:56:53;;;;;;;7.43;1.92;;;;;;;3.14;100.00;99561.47;4961682;28;20054;-80
2022/04/08 04:59:21;;;;;;;6.85;2.25;;;;;;;3.12;100.00;99565.78;4900371;29;20047;-80
2022/04/08 05:01:50;;;;;;;8.75;1.80;;;;;;;3.12;100.00;99573.59;4953253;28;20066;-80
2022/04/08 05:04:19;;;;;;;5.57;2.05;;;;;;;3.11;100.00;99588.31;4920900;28;20055;-81
2022/04/08 05:06:47;;;;;;;11.98;2.03;;;;;;;3.07;100.00;99594.34;4932856;29;20043;-80
2022/04/08 05:09:16;;;;;;;7.45;1.70;;;;;;;3.02;100.00;99614.22;4894666;29;20048;-81
2022/04/08 05:11:44;;;;;;;2.25;1.50;;;;;;;2.84;100.00;99606.16;4952380;28;20062;-79
2022/04/08 05:14:13;;;;;;;8.13;1.85;;;;;;;2.69;100.00;99594.66;4948613;28;20373;-80
2022/04/08 05:16:42;;;;;;;4.20;2.40;;;;;;;2.58;100.00;99592.78;4919931;29;20489;-79
2022/04/08 05:19:11;;;;;;;6.82;1.80;;;;;;;2.55;100.00;99601.38;4921408;28;20066;-80
2022/04/08 05:21:39;;;;;;;2.88;1.20;;;;;;;2.50;100.00;99592.66;4944900;28;20077;-80
2022/04/08 05:24:08;;;;;;;4.40;1.42;;;;;;;2.45;100.00;99589.97;4936349;28;20518;-80
2022/04/08 05:26:36;;;;;;;3.75;1.40;;;;;;;2.47;100.00;99582.19;4946194;28;20046;-80
2022/04/08 05:29:04;;;;;;;5.68;1.80;;;;;;;2.48;100.00;99586.56;4949791;29;20039;-80
2022/04/08 05:31:33;;;;;;;7.68;2.53;;;;;;;2.53;100.00;99587.47;4946798;28;20513;-80
2022/04/08 05:34:01;;;;;;;5.60;2.40;;;;;;;2.57;100.00;99578.91;4951098;28;20054;-80
2022/04/08 05:36:30;;;;;;;5.10;2.17;;;;;;;2.61;100.00;99585.00;4914692;28;20043;-80
2022/04/08 05:38:58;;;;;;;4.00;1.85;;;;;;;2.63;100.00;99586.78;4938535;29;20038;-80
2022/04/08 05:41:27;;;;;;;4.07;1.90;;;;;;;2.68;100.00;99592.03;4926808;28;20059;-79
2022/04/08 05:43:55;;;;;;;9.13;2.35;;;;;;;2.70;100.00;99601.63;4930228;29;20043;-79
2022/04/08 05:46:23;;;;;;;9.40;2.83;;;;;;;2.73;100.00;99596.47;4946476;28;20052;-80
2022/04/08 05:48:52;;;;;;;6.15;2.10;;;;;;;2.77;100.00;99601.72;4936584;29;20035;-81
2022/04/08 05:51:21;;;;;;;5.45;2.20;;;;;;;2.77;100.00;99599.13;4910974;28;20050;-80
2022/04/08 05:54:07;;;;;;;6.65;2.00;;;;;;;2.78;100.00;99608.66;4926059;28;20186;-79
2022/04/08 05:56:35;;;;;;;5.88;2.75;;;;;;;2.82;100.00;99613.06;4936682;28;20050;-79
2022/04/08 05:59:03;;;;;;;8.07;2.00;;;;;;;2.81;100.00;99611.31;4913864;29;20035;-78
2022/04/08 06:01:33;;;;;;;10.18;2.45;;;;;;;2.80;100.00;99610.44;4959249;28;20524;-79
2022/04/08 06:04:02;;;;;;;7.20;2.33;;;;;;;2.82;100.00;99610.47;4947370;28;20554;-78
2022/04/08 06:06:30;;;;;;;8.63;2.10;;;;;;;2.79;100.00;99616.50;4919119;28;20042;-78
2022/04/08 06:09:02;;;;;;;5.05;1.90;;;;;;;2.83;100.00;99607.00;4948911;28;20051;-78
2022/04/08 06:11:30;;;;;;;4.93;1.98;;;;;;;2.88;100.00;99616.63;4926469;28;20185;-78
2022/04/08 06:13:58;;;;;;;10.73;2.55;;;;;;;2.93;100.00;99607.16;4954360;28;20054;-79
2022/04/08 06:16:27;;;;;;;8.43;2.47;;;;;;;2.94;100.00;99600.22;4930392;28;20047;-78
2022/04/08 06:18:58;;;;;;;3.28;1.63;;;;;;;2.92;100.00;99604.53;4931945;28;20036;-80
2022/04/08 06:21:26;;;;;;;5.55;2.03;;;;;;;2.96;100.00;99608.94;4899668;28;20054;-78
2022/04/08 06:23:55;;;;;;;6.90;2.30;;;;;;;3.07;100.00;99606.47;4956298;28;20039;-79
2022/04/08 06:26:29;;;;;;;5.20;1.83;;;;;;;3.21;100.00;99602.31;4932925;29;20153;-78
2022/04/08 06:28:58;;;;;;;5.93;1.83;;;;;;;3.30;100.00;99614.59;4940280;28;20056;-79
2022/04/08 06:31:29;;;;;;;4.28;1.80;;;;;;;3.33;100.00;99612.03;4952176;28;20051;-78
2022/04/08 06:33:59;;;;;;;5.32;1.60;;;;;;;3.44;100.00;99605.22;4918796;28;20055;-79
2022/04/08 06:36:29;;;;;;;3.95;1.70;;;;;;;3.58;100.00;99604.53;4959667;28;20066;-80
2022/04/08 06:38:57;;;;;;;8.45;1.60;;;;;;;3.63;100.00;99602.81;4916013;28;20039;-79
2022/04/08 06:41:26;;;;;;;5.32;1.80;;;;;;;3.59;100.00;99601.03;4938085;28;20265;-78
2022/04/08 06:43:54;;;;;;;4.60;1.60;;;;;;;3.81;100.00;99599.56;4941123;28;20043;-80
2022/04/08 06:46:22;;;;;;;5.97;1.73;;;;;;;4.01;100.00;99597.16;4915773;29;20035;-79
2022/04/08 06:48:51;;;;;;;6.80;1.70;;;;;;;4.30;100.00;99607.84;4934994;28;20043;-79
2022/04/08 06:51:20;;;;;;;6.65;1.90;;;;;;;4.63;100.00;99607.25;4970198;28;20078;-79
2022/04/08 06:53:48;;;;;;;6.40;1.70;;;;;;;5.17;100.00;99606.72;4930414;28;20043;-79
2022/04/08 06:56:17;;;;;;;7.75;1.80;;;;;;;5.62;100.00;99613.00;4925197;28;20094;-79
2022/04/08 06:58:45;;;;;;;7.05;1.80;;;;;;;5.99;100.00;99602.66;4935371;28;20036;-79
2022/04/08 07:01:13;;;;;;;6.28;2.20;;;;;;;6.13;100.00;99621.00;4929235;28;20181;-80
2022/04/08 07:03:42;;;;;;;8.90;1.92;;;;;;;6.16;100.00;99618.38;4922109;29;20043;-79
2022/04/08 07:06:10;;;;;;;6.50;1.80;;;;;;;6.06;100.00;99607.03;4931231;28;20048;-80
2022/04/08 07:08:41;;;;;;;5.07;1.70;;;;;;;5.89;100.00;99611.34;4904714;28;20039;-80
2022/04/08 07:11:09;;;;;;;8.02;1.88;;;;;;;5.62;100.00;99607.78;4952008;28;20054;-79
2022/04/08 07:13:41;;;;;;;5.13;2.00;;;;;;;5.46;100.00;99612.94;4945228;28;20051;-79
2022/04/08 07:16:12;;;;;;;5.53;2.63;;;;;;;5.46;100.00;99620.78;4920910;28;65814;-80
2022/04/08 07:18:40;;;;;;;5.43;2.08;;;;;;;5.35;100.00;99619.88;4928481;28;20518;-79
2022/04/08 07:21:09;;;;;;;10.70;2.17;;;;;;;5.12;100.00;99621.47;4957738;28;20043;-80
2022/04/08 07:23:37;;;;;;;10.05;2.40;;;;;;;5.00;100.00;99617.91;4968388;28;20047;-79
2022/04/08 07:26:06;;;;;;;7.25;2.30;;;;;;;4.92;100.00;99619.63;4919643;28;20055;-80
2022/04/08 07:28:35;;;;;;;7.07;1.85;;;;;;;4.83;100.00;99625.66;4965247;28;20054;-79
2022/04/08 07:31:04;;;;;;;6.13;1.80;;;;;;;4.77;100.00;99629.97;4948006;28;20039;-80
2022/04/08 07:33:32;;;;;;;6.97;2.13;;;;;;;4.72;100.00;99636.88;4941554;28;20282;-79
2022/04/08 07:36:03;;;;;;;7.18;2.40;;;;;;;4.67;100.00;99631.63;4942238;28;20039;-79
2022/04/08 07:38:31;;;;;;;7.90;2.65;;;;;;;4.63;100.00;99627.22;4931810;28;20352;-79
2022/04/08 07:41:00;;;;;;;13.02;2.72;;;;;;;4.62;100.00;99630.72;4939866;28;20047;-79
2022/04/08 07:43:28;;;;;;;6.43;3.08;;;;;;;4.66;100.00;99625.53;4942581;28;20039;-79
2022/04/08 07:45:57;;;;;;;10.32;3.42;;;;;;;4.73;100.00;99626.47;4958241;28;20046;-79
2022/04/08 07:48:27;;;;;;;8.50;2.70;;;;;;;4.83;100.00;99619.56;4945999;28;20280;-79
2022/04/08 07:50:56;;;;;;;10.63;2.53;;;;;;;4.94;100.00;99623.13;4948275;28;20051;-79
2022/04/08 07:53:24;;;;;;;6.25;2.00;;;;;;;5.04;100.00;99619.69;4942053;28;20253;-79
2022/04/08 07:55:53;;;;;;;8.70;2.60;;;;;;;5.10;100.00;99618.84;4971822;28;20526;-79
2022/04/08 07:58:21;;;;;;;6.57;1.90;;;;;;;5.12;100.00;99614.50;4946441;28;20316;-79
2022/04/08 08:00:53;;;;;;;10.90;2.05;;;;;;;5.10;100.00;99617.97;4937651;28;20036;-78
2022/04/08 08:03:22;;;;;;;10.35;2.30;;;;;;;5.08;100.00;99625.78;4970623;28;21161;-79
2022/04/08 08:05:53;;;;;;;9.77;2.92;;;;;;;5.06;100.00;99636.22;4923424;28;20051;-79
2022/04/08 08:08:21;;;;;;;;;;;;;;;5.00;100.00;99637.94;4970866;28;20058;-79
2022/04/08 08:10:50;;;;;;;6.82;2.13;;;;;;;4.87;100.00;99631.75;4977641;28;19922;-78
2022/04/08 08:13:18;;;;;;;2.90;1.67;;;;;;;4.79;100.00;99638.69;4941274;28;20066;-79
2022/04/08 08:15:47;;;;;;;6.05;1.75;;;;;;;4.71;100.00;99638.63;4955412;28;20830;-78
2022/04/08 08:18:15;;;;;;;5.80;2.10;;;;;;;4.66;100.00;99635.97;4941807;28;20929;-78
2022/04/08 08:20:44;;;;;;;9.05;2.00;;;;;;;4.63;100.00;99640.28;4925621;28;20034;-79
2022/04/08 08:23:12;;;;;;;5.45;1.90;;;;;;;4.73;100.00;99634.28;4953193;28;20051;-79
2022/04/08 08:25:42;;;;;;;5.93;2.22;;;;;;;5.07;100.00;99624.06;4939931;28;20527;-79
2022/04/08 08:28:10;;;;;;;6.32;2.10;;;;;;;5.49;100.00;99632.13;4958151;28;20042;-81
2022/04/08 08:30:39;;;;;;;8.60;2.80;;;;;;;5.90;100.00;99632.25;4962181;28;20058;-78
2022/04/08 08:33:07;;;;;;;8.25;2.40;;;;;;;6.27;100.00;99634.97;4953387;28;20043;-79
2022/04/08 08:35:36;;;;;;;4.82;1.92;;;;;;;6.70;100.00;99637.59;4947582;28;20396;-77
2022/04/08 08:38:05;;;;;;;8.65;1.90;;;;;;;7.06;100.00;99633.19;4960571;28;20054;-78
2022/04/08 08:40:34;;;;;;;6.50;1.83;;;;;;;7.30;100.00;99631.41;4956421;28;20503;-79
2022/04/08 08:43:08;;;;;;;7.38;2.72;;;;;;;7.55;100.00;99637.44;4921480;28;20042;-80
2022/04/08 08:45:37;;;;;;;11.50;2.22;;;;;;;7.59;100.00;99633.91;4954930;28;20043;-79
2022/04/08 08:48:07;;;;;;;7.22;1.73;;;;;;;7.68;100.00;99639.13;4964323;28;20420;-79
2022/04/08 08:50:39;;;;;;;16.33;3.25;;;;;;;7.87;100.00;99629.41;4938989;28;20408;-78
2022/04/08 08:53:08;;;;;;;9.88;2.42;;;;;;;8.02;100.00;99630.22;4950664;28;20062;-78
2022/04/08 08:55:37;;;;;;;7.07;2.30;;;;;;;8.07;100.00;99620.53;4949838;28;20051;-80
2022/04/08 08:58:07;;;;;;;8.32;2.08;;;;;;;8.12;100.00;99621.41;4950310;28;20051;-80
2022/04/08 09:00:36;;;;;;;;;;;;;;;7.93;100.00;99633.75;4969303;28;20046;-77
2022/04/08 09:03:05;;;;;;;7.80;2.00;;;;;;;7.53;100.00;99639.19;4962520;28;19922;-81
2022/04/08 09:05:41;;;;;;;8.27;2.88;;;;;;;6.89;100.00;99656.78;4951988;28;20043;-79
2022/04/08 09:08:13;;;;;;;8.85;2.00;;;;;;;6.39;100.00;99652.41;4958312;28;20055;-80
2022/04/08 09:10:48;;;;;;;5.28;1.65;;;;;;;5.96;100.00;99644.50;4951768;28;20043;-79
2022/04/08 09:13:21;;;;;;;6.57;1.73;;;;;;;5.84;100.00;99655.75;4933076;28;20691;-79
2022/04/08 09:15:55;;;;;;;5.63;1.70;;;;;;;5.89;100.00;99645.31;4956308;28;20043;-78
2022/04/08 09:18:27;;;;;;;6.05;1.70;;;;;;;6.00;100.00;99638.41;4961148;28;20057;-78
2022/04/08 09:20:57;;;;;;;8.07;2.60;;;;;;;6.17;100.00;99633.22;4956678;28;20058;-79
2022/04/08 09:23:28;;;;;;;5.20;1.73;;;;;;;6.37;100.00;99630.59;4941375;28;20035;-79
2022/04/08 09:26:09;;;;;;;7.47;1.90;;;;;;;6.53;100.00;99632.38;4940307;28;20055;-79
2022/04/08 09:28:40;;;;;;;8.27;1.73;;;;;;;6.58;100.00;99632.38;4941196;28;20043;-79
2022/04/08 09:31:17;;;;;;;9.82;2.03;;;;;;;6.61;100.00;99648.06;4957580;28;20058;-79
2022/04/08 09:33:50;;;;;;;4.22;1.45;;;;;;;6.55;100.00;99654.19;4964041;28;20043;-80
2022/04/08 09:36:31;;;;;;;1.83;1.00;;;;;;;6.27;100.00;99649.78;4936072;28;20736;-79
2022/04/08 09:38:59;;;;;;;;;;;;;;;5.91;100.00;99646.19;4927967;28;20065;-80
2022/04/08 09:41:44;;;;;;;5.40;1.67;;;;;;;5.74;100.00;99635.69;4950256;28;20203;-79
2022/04/08 09:44:14;;;;;;;3.13;1.23;;;;;;;5.75;100.00;99635.69;4940718;28;20055;-79
2022/04/08 09:46:43;;;;;;;4.85;1.20;;;;;;;5.89;100.00;99627.88;4948255;28;20054;-78
2022/04/08 09:49:11;;;;;;;3.63;1.25;;;;;;;6.05;100.00;99627.09;4954889;28;20050;-79
2022/04/08 09:51:41;;;;;;;3.67;1.27;;;;;;;6.20;100.00;99625.34;4944395;28;20527;-79
2022/04/08 09:54:12;;;;;;;3.33;1.20;;;;;;;6.35;100.00;99630.63;4919640;28;20050;-80
2022/04/08 09:56:43;;;;;;;2.92;1.17;;;;;;;6.52;100.00;99620.19;4947866;28;20051;-79
2022/04/08 09:59:19;;;;;;;4.40;1.02;;;;;;;6.69;100.00;99616.66;4900276;28;20054;-79
2022/04/08 10:02:09;;;;;;;3.80;1.25;;;;;;;6.75;100.00;99632.38;4966714;28;20051;-79
2022/04/08 10:04:38;;;;;;;7.53;1.45;;;;;;;6.79;100.00;99636.75;4932247;28;20550;-79
2022/04/08 10:07:10;;;;;;;4.05;1.45;;;;;;;6.80;100.00;99631.47;4955120;28;20050;-79
2022/04/08 10:10:18;;;;;;;3.53;1.50;;;;;;;6.81;100.00;99640.22;4964943;28;20423;-79
2022/04/08 10:13:12;;;;;;;4.15;1.60;;;;;;;6.80;100.00;99635.84;4934293;28;20294;-79
2022/04/08 10:15:44;;;;;;;2.92;1.25;;;;;;;6.68;100.00;99636.72;4932312;28;20460;-79
2022/04/08 10:18:13;;;;;;;4.70;1.30;;;;;;;6.70;100.00;99629.75;4954150;28;20050;-80
2022/04/08 10:20:44;;;;;;;3.53;1.13;;;;;;;6.78;100.00;99627.13;4961736;28;20055;-79
2022/04/08 10:23:18;;;;;;;9.13;1.65;;;;;;;6.97;100.00;99618.34;4949841;28;20035;-80
2022/04/08 10:25:58;;;;;;;5.85;1.90;;;;;;;7.28;100.00;99622.66;4949794;28;20503;-82
2022/04/08 10:28:37;;;;;;;1.98;1.42;;;;;;;7.40;100.00;99617.38;4938512;28;20051;-80
2022/04/08 10:31:17;;;;;;;7.65;1.38;;;;;;;7.45;100.00;99604.25;4939486;28;20047;-80
2022/04/08 10:33:48;;;;;;;4.03;1.10;;;;;;;7.48;100.00;99612.97;4956849;28;20035;-80
2022/04/08 10:36:16;;;;;;;;;;;;;;;7.45;100.00;99620.88;4954843;28;20065;-78
2022/04/08 10:38:45;;;;;;;5.97;1.73;;;;;;;7.41;100.00;99608.66;4954312;28;19926;-78
2022/04/08 10:41:14;;;;;;;5.70;1.83;;;;;;;7.36;100.00;99607.78;4956248;28;20051;-78
2022/04/08 10:43:46;;;;;;;9.18;1.80;;;;;;;7.29;100.00;99614.78;4961419;28;20038;-78
2022/04/08 10:46:29;;;;;;;5.25;1.38;;;;;;;7.31;100.00;99613.03;4931655;28;20043;-77
2022/04/08 10:48:58;;;;;;;11.13;2.45;;;;;;;7.46;100.00;99599.00;4964604;28;20039;-78
2022/04/08 10:51:32;;;;;;;5.47;1.35;;;;;;;7.62;100.00;99594.59;4971372;28;20244;-77
2022/04/08 10:54:05;;;;;;;4.95;1.65;;;;;;;7.75;100.00;99595.38;4948432;28;20611;-78
2022/04/08 10:56:34;;;;;;;5.13;1.17;;;;;;;7.73;100.00;99603.28;4977554;28;20281;-78
2022/04/08 10:59:10;;;;;;;4.18;1.45;;;;;;;7.68;100.00;99617.28;4955785;28;20051;-78
2022/04/08 11:01:46;;;;;;;7.07;1.58;;;;;;;7.56;100.00;99608.59;4939275;28;20059;-78
2022/04/08 11:04:19;;;;;;;3.38;1.50;;;;;;;7.50;100.00;99602.50;4925827;28;20237;-79
2022/04/08 11:06:48;;;;;;;6.03;1.73;;;;;;;7.40;100.00;99613.00;4973713;28;20050;-78
2022/04/08 11:09:18;;;;;;;8.53;2.03;;;;;;;7.37;100.00;99617.38;4959506;28;20269;-77
2022/04/08 11:11:52;;;;;;;10.65;2.15;;;;;;;7.31;100.00;99610.41;4975686;28;20050;-78
2022/04/08 11:14:21;;;;;;;6.30;1.38;;;;;;;7.31;100.00;99612.16;4968538;28;20042;-78
2022/04/08 11:16:50;;;;;;;8.55;1.60;;;;;;;7.27;100.00;99610.44;4913594;28;20191;-78
2022/04/08 11:19:21;;;;;;;7.47;1.60;;;;;;;7.28;100.00;99618.31;4962965;28;20223;-81
2022/04/08 11:21:56;;;;;;;6.95;2.15;;;;;;;7.37;100.00;99618.28;4980995;28;20448;-78
2022/04/08 11:24:26;;;;;;;3.72;1.80;;;;;;;7.47;100.00;99618.25;4935645;28;20082;-78
2022/04/08 11:26:55;;;;;;;7.95;1.80;;;;;;;7.66;100.00;99614.66;4984635;28;20057;-79
2022/04/08 11:29:27;;;;;;;6.22;1.70;;;;;;;7.68;100.00;99628.63;4960713;28;20058;-77
2022/04/08 11:32:11;;;;;;;5.72;1.63;;;;;;;7.65;100.00;99630.41;4954750;28;20061;-79
2022/04/08 11:34:40;;;;;;;5.00;1.40;;;;;;;7.71;100.00;99628.63;4957501;28;20077;-77
2022/04/08 11:37:09;;;;;;;7.35;1.58;;;;;;;7.68;100.00;99622.53;4964938;28;20070;-78
2022/04/08 11:39:40;;;;;;;4.00;1.58;;;;;;;7.60;100.00;99635.66;4982793;28;20047;-77
2022/04/08 11:42:09;;;;;;;;;;;;;;;7.51;96.73;99635.69;4975059;28;20061;-78
2022/04/08 11:44:44;;;;;;;4.57;1.20;;;;;;;7.48;100.00;99631.31;4979435;28;19930;-78